松山國際航空站 - ATIS

METAR RCSS 181130Z 10007KT 9000 FEW018 BKN025 BKN040 15/11 Q1021 NOSIG RMK A3015=

站台狀態:Online
最後更新:2020-01-18 19:45:03